createdAt,value
2017-08-22T00:00:55.171Z,91.60
2017-08-22T00:03:29.075Z,91.80
2017-08-22T00:05:59.447Z,92.00
2017-08-22T00:08:29.267Z,92.20
2017-08-22T00:10:59.171Z,92.50
2017-08-22T00:13:28.949Z,92.60
2017-08-22T00:15:58.528Z,92.70
2017-08-22T00:18:28.887Z,92.60
2017-08-22T00:20:58.622Z,92.30
2017-08-22T00:23:28.523Z,92.60
2017-08-22T00:25:58.258Z,92.30
2017-08-22T00:28:27.827Z,92.20
2017-08-22T00:30:57.547Z,92.20
2017-08-22T00:33:27.364Z,92.10
2017-08-22T00:35:57.436Z,92.00
2017-08-22T00:38:27.619Z,91.80
2017-08-22T00:40:57.212Z,91.90
2017-08-22T00:43:26.806Z,91.80
2017-08-22T00:45:56.640Z,91.90
2017-08-22T00:48:27.035Z,91.90
2017-08-22T00:50:56.846Z,92.60
2017-08-22T00:53:26.655Z,92.20
2017-08-22T00:55:56.418Z,92.70
2017-08-22T00:58:26.298Z,93.10
2017-08-22T01:00:56.386Z,93.10
2017-08-22T01:03:26.011Z,92.90
2017-08-22T01:05:55.585Z,93.00
2017-08-22T01:08:25.563Z,92.90
2017-08-22T01:10:55.171Z,92.60
2017-08-22T01:13:24.724Z,92.50
2017-08-22T01:15:54.386Z,92.10
2017-08-22T01:18:24.944Z,92.10
2017-08-22T01:20:54.506Z,91.90
2017-08-22T01:23:24.661Z,92.00
2017-08-22T01:25:54.342Z,92.10
2017-08-22T01:28:24.468Z,92.20
2017-08-22T01:30:54.412Z,92.50
2017-08-22T01:33:24.199Z,92.60
2017-08-22T01:35:54.050Z,92.50
2017-08-22T01:38:23.964Z,92.30
2017-08-22T01:40:54.554Z,92.20
2017-08-22T01:43:24.399Z,92.20
2017-08-22T01:45:54.266Z,92.30
2017-08-22T01:48:24.075Z,92.20
2017-08-22T01:50:54.064Z,92.30
2017-08-22T01:53:23.707Z,92.80
2017-08-22T01:55:53.546Z,92.60
2017-08-22T01:58:23.346Z,92.70
2017-08-22T02:00:53.171Z,92.50
2017-08-22T02:03:22.803Z,92.40
2017-08-22T02:05:52.731Z,92.20
2017-08-22T02:08:22.427Z,92.10
2017-08-22T02:10:52.422Z,92.20
2017-08-22T02:13:22.711Z,92.00
2017-08-22T02:15:52.882Z,92.40
2017-08-22T02:18:22.908Z,92.70
2017-08-22T02:20:52.683Z,92.70
2017-08-22T02:23:22.685Z,92.70
2017-08-22T02:25:52.364Z,92.70
2017-08-22T02:28:22.270Z,92.60
2017-08-22T02:30:51.871Z,92.60
2017-08-22T02:33:21.590Z,92.60
2017-08-22T02:35:51.152Z,93.10
2017-08-22T02:38:20.675Z,93.10
2017-08-22T02:40:50.547Z,93.40
2017-08-22T02:43:20.939Z,93.80
2017-08-22T02:45:50.752Z,93.50
2017-08-22T02:48:20.331Z,93.20
2017-08-22T02:50:50.111Z,92.90
2017-08-22T02:53:20.150Z,92.70
2017-08-22T02:55:50.220Z,92.50
2017-08-22T02:58:19.961Z,92.70
2017-08-22T03:00:50.164Z,92.70
2017-08-22T03:03:20.231Z,92.70
2017-08-22T03:05:49.990Z,92.70
2017-08-22T03:08:19.855Z,93.20
2017-08-22T03:10:49.510Z,93.10
2017-08-22T03:13:19.775Z,93.10
2017-08-22T03:15:49.635Z,93.00
2017-08-22T03:18:19.424Z,92.90
2017-08-22T03:20:49.006Z,93.10
2017-08-22T03:23:18.619Z,93.40
2017-08-22T03:25:48.488Z,93.30
2017-08-22T03:28:18.043Z,93.50
2017-08-22T03:30:47.928Z,93.60
2017-08-22T03:33:18.018Z,93.90
2017-08-22T03:35:47.599Z,93.60
2017-08-22T03:38:17.447Z,93.50
2017-08-22T03:40:46.995Z,93.30
2017-08-22T03:43:16.552Z,93.30
2017-08-22T03:45:46.767Z,93.30
2017-08-22T03:48:16.647Z,93.30
2017-08-22T03:50:46.355Z,93.50
2017-08-22T03:53:16.615Z,93.70
2017-08-22T03:55:47.208Z,93.70
2017-08-22T03:58:17.203Z,93.40
2017-08-22T04:00:46.980Z,93.20
2017-08-22T04:03:17.014Z,93.00
2017-08-22T04:05:46.618Z,93.20
2017-08-22T04:08:17.587Z,92.90
2017-08-22T04:10:47.295Z,92.80
2017-08-22T04:13:17.194Z,92.70
2017-08-22T04:15:47.283Z,92.70
2017-08-22T04:18:17.391Z,92.80
2017-08-22T04:20:47.212Z,93.00
2017-08-22T04:23:16.864Z,93.20
2017-08-22T04:25:46.439Z,93.20
2017-08-22T04:28:16.185Z,93.00
2017-08-22T04:30:45.702Z,92.80
2017-08-22T04:33:15.547Z,93.10
2017-08-22T04:35:45.146Z,92.80
2017-08-22T04:38:15.292Z,92.40
2017-08-22T04:40:44.951Z,92.40
2017-08-22T04:43:14.500Z,92.30
2017-08-22T04:45:44.471Z,92.20
2017-08-22T04:48:14.051Z,92.00
2017-08-22T04:50:43.906Z,92.00
2017-08-22T04:53:13.632Z,92.00
2017-08-22T04:55:43.279Z,91.60
2017-08-22T04:58:12.793Z,91.30
2017-08-22T05:00:42.328Z,91.00
2017-08-22T05:03:11.837Z,90.90
2017-08-22T05:05:41.386Z,91.00
2017-08-22T05:08:10.890Z,91.00
2017-08-22T05:10:40.435Z,91.00
2017-08-22T05:13:09.936Z,90.80
2017-08-22T05:15:39.452Z,90.90
2017-08-22T05:18:08.999Z,90.70
2017-08-22T05:20:38.898Z,90.40
2017-08-22T05:23:45.780Z,90.60
2017-08-22T05:26:15.364Z,90.50
2017-08-22T05:28:45.119Z,90.50
2017-08-22T05:31:14.859Z,90.80
2017-08-22T05:33:44.879Z,91.00
2017-08-22T05:36:14.479Z,89.60
2017-08-22T05:38:44.386Z,89.40
2017-08-22T05:41:14.707Z,87.60
2017-08-22T05:43:45.062Z,87.10
2017-08-22T05:46:15.144Z,86.90
2017-08-22T05:48:45.500Z,86.40
2017-08-22T05:51:15.473Z,86.40
2017-08-22T05:53:46.135Z,86.50
2017-08-22T05:56:15.811Z,86.50
2017-08-22T05:58:45.359Z,86.80
2017-08-22T06:01:14.887Z,86.10
2017-08-22T06:03:44.658Z,86.40
2017-08-22T06:06:14.212Z,86.20
2017-08-22T06:08:45.834Z,86.40
2017-08-22T06:11:16.315Z,85.60
2017-08-22T06:13:46.393Z,86.60
2017-08-22T06:16:16.386Z,85.50
2017-08-22T06:18:45.994Z,85.10
2017-08-22T06:21:17.016Z,84.90
2017-08-22T06:23:47.174Z,84.90
2017-08-22T06:26:16.905Z,86.70
2017-08-22T06:28:46.489Z,87.90
2017-08-22T06:31:16.285Z,85.70
2017-08-22T06:33:45.818Z,84.20
2017-08-22T06:36:15.671Z,84.10
2017-08-22T06:38:45.226Z,82.60
2017-08-22T06:41:24.760Z,83.50
2017-08-22T06:43:54.631Z,83.20
2017-08-22T06:46:24.728Z,83.60
2017-08-22T06:48:54.315Z,83.20
2017-08-22T06:51:27.176Z,81.60
2017-08-22T06:53:56.880Z,81.90
2017-08-22T06:56:26.830Z,82.30
2017-08-22T06:58:56.542Z,81.90
2017-08-22T07:01:26.079Z,82.70
2017-08-22T07:03:55.670Z,81.80
2017-08-22T07:06:25.269Z,80.10
2017-08-22T07:08:55.283Z,79.50
2017-08-22T07:11:24.851Z,79.20
2017-08-22T07:13:54.442Z,79.20
2017-08-22T07:16:24.412Z,78.40
2017-08-22T07:18:54.115Z,78.50
2017-08-22T07:21:23.671Z,76.30
2017-08-22T07:23:53.987Z,73.50
2017-08-22T07:26:23.541Z,73.50
2017-08-22T07:28:53.370Z,71.20
2017-08-22T07:31:23.031Z,66.40
2017-08-22T07:33:53.443Z,59.20
2017-08-22T07:36:23.027Z,59.10
2017-08-22T07:38:52.732Z,58.00
2017-08-22T07:41:22.695Z,54.80
2017-08-22T07:43:54.006Z,55.30
2017-08-22T07:46:23.624Z,54.70
2017-08-22T07:48:53.452Z,53.90
2017-08-22T07:51:23.027Z,55.30
2017-08-22T07:53:52.648Z,54.80
2017-08-22T07:56:22.359Z,53.10
2017-08-22T07:58:52.477Z,53.50
2017-08-22T08:01:22.738Z,55.80
2017-08-22T08:03:53.113Z,54.70
2017-08-22T08:06:26.262Z,54.70
2017-08-22T08:08:56.285Z,53.90
2017-08-22T08:11:26.643Z,54.10
2017-08-22T08:13:56.247Z,54.00
2017-08-22T08:16:25.891Z,52.70
2017-08-22T08:18:55.520Z,53.50
2017-08-22T08:21:25.475Z,51.70
2017-08-22T08:23:55.084Z,52.20
2017-08-22T08:26:25.415Z,51.20
2017-08-22T08:28:55.410Z,51.20
2017-08-22T08:31:24.942Z,48.20
2017-08-22T08:33:54.467Z,48.10
2017-08-22T08:36:24.043Z,47.40
2017-08-22T08:38:53.699Z,48.70
2017-08-22T08:41:24.193Z,52.10
2017-08-22T08:43:53.677Z,52.00
2017-08-22T08:46:23.161Z,51.10
2017-08-22T08:48:53.589Z,53.00
2017-08-22T08:51:24.168Z,51.70
2017-08-22T08:53:54.078Z,51.70
2017-08-22T08:56:23.763Z,50.70
2017-08-22T08:58:53.256Z,50.80
2017-08-22T09:01:23.730Z,51.20
2017-08-22T09:03:53.179Z,51.20
2017-08-22T09:06:23.456Z,52.90
2017-08-22T09:08:53.155Z,52.90
2017-08-22T09:11:23.953Z,53.10
2017-08-22T09:13:53.818Z,55.70
2017-08-22T09:16:23.450Z,54.00
2017-08-22T09:18:53.037Z,53.60
2017-08-22T09:21:22.580Z,53.40
2017-08-22T09:23:52.131Z,51.70
2017-08-22T09:26:22.068Z,54.00
2017-08-22T09:28:51.663Z,49.70
2017-08-22T09:31:21.247Z,50.20
2017-08-22T09:33:51.247Z,51.50
2017-08-22T09:36:21.484Z,51.80
2017-08-22T09:38:51.583Z,54.50
2017-08-22T09:41:21.144Z,55.20
2017-08-22T09:43:50.719Z,55.50
2017-08-22T09:46:21.250Z,54.50
2017-08-22T09:48:51.580Z,53.80
2017-08-22T09:51:22.174Z,55.40
2017-08-22T09:53:52.356Z,56.10
2017-08-22T09:56:22.643Z,55.10
2017-08-22T09:58:52.261Z,55.40
2017-08-22T10:01:21.772Z,55.60
2017-08-22T10:03:52.473Z,51.50
2017-08-22T10:06:22.433Z,52.10
2017-08-22T10:08:52.019Z,53.90
2017-08-22T10:11:21.650Z,50.30
2017-08-22T10:13:51.803Z,50.40
2017-08-22T10:16:22.782Z,52.70
2017-08-22T10:18:52.414Z,52.40
2017-08-22T10:21:22.280Z,49.30
2017-08-22T10:23:58.847Z,52.70
2017-08-22T10:26:29.144Z,51.50
2017-08-22T10:31:38.761Z,49.90
2017-08-22T10:34:09.187Z,52.30
2017-08-22T10:36:39.525Z,54.60
2017-08-22T10:39:09.347Z,54.60
2017-08-22T10:41:38.929Z,51.10
2017-08-22T10:44:09.048Z,55.80
2017-08-22T10:46:38.672Z,51.60
2017-08-22T10:51:51.053Z,52.40
2017-08-22T10:54:20.973Z,53.20
2017-08-22T10:56:50.606Z,56.00
2017-08-22T10:59:21.298Z,53.70
2017-08-22T11:01:51.743Z,56.20
2017-08-22T11:04:22.038Z,56.30
2017-08-22T11:06:52.558Z,55.20
2017-08-22T11:09:22.135Z,56.00
2017-08-22T11:11:51.846Z,54.70
2017-08-22T11:14:21.496Z,53.60
2017-08-22T11:16:51.332Z,53.00
2017-08-22T11:19:21.258Z,52.90
2017-08-22T11:21:51.662Z,54.00
2017-08-22T11:24:21.198Z,53.90
2017-08-22T11:26:51.125Z,54.10
2017-08-22T11:30:50.007Z,54.90
2017-08-22T11:33:19.636Z,54.40
2017-08-22T11:35:50.807Z,55.30
2017-08-22T11:38:21.451Z,55.50
2017-08-22T11:40:51.096Z,55.50
2017-08-22T11:43:20.745Z,53.50
2017-08-22T11:45:50.361Z,53.20
2017-08-22T11:48:19.914Z,53.80
2017-08-22T11:50:50.555Z,51.10
2017-08-22T11:53:20.962Z,50.10
2017-08-22T11:55:50.620Z,49.90
2017-08-22T11:58:20.556Z,49.40
2017-08-22T12:00:51.045Z,51.90
2017-08-22T12:03:20.940Z,51.90
2017-08-22T12:05:50.528Z,53.10
2017-08-22T12:08:20.116Z,53.70
2017-08-22T12:10:49.689Z,55.20
2017-08-22T12:13:19.265Z,54.90
2017-08-22T12:15:50.511Z,54.30
2017-08-22T12:18:31.533Z,51.10
2017-08-22T12:21:01.555Z,50.90
2017-08-22T12:23:31.536Z,52.80
2017-08-22T12:26:01.894Z,51.80
2017-08-22T12:28:32.340Z,51.60
2017-08-22T12:31:02.202Z,51.60
2017-08-22T12:33:31.884Z,55.40
2017-08-22T12:36:01.803Z,54.60
2017-08-22T12:38:31.739Z,54.40
2017-08-22T12:41:02.310Z,55.60
2017-08-22T12:43:33.146Z,57.40
2017-08-22T12:46:03.026Z,57.40
2017-08-22T12:48:32.740Z,56.80
2017-08-22T12:51:02.931Z,56.40
2017-08-22T12:53:32.534Z,58.50
2017-08-22T12:56:02.237Z,55.80
2017-08-22T12:58:32.469Z,56.40
2017-08-22T13:01:02.127Z,55.70
2017-08-22T13:03:32.946Z,57.00
2017-08-22T13:06:02.580Z,57.00
2017-08-22T13:08:32.960Z,57.10
2017-08-22T13:11:02.671Z,57.00
2017-08-22T13:13:32.271Z,57.80
2017-08-22T13:16:02.314Z,56.70
2017-08-22T13:18:32.375Z,57.00
2017-08-22T13:21:02.197Z,56.40
2017-08-22T13:23:32.586Z,55.50
2017-08-22T13:26:02.340Z,56.90
2017-08-22T13:28:33.384Z,57.20
2017-08-22T13:31:03.047Z,57.10
2017-08-22T13:33:34.343Z,56.50
2017-08-22T13:36:04.292Z,55.70
2017-08-22T13:38:33.832Z,56.60
2017-08-22T13:41:03.508Z,56.00
2017-08-22T13:43:33.076Z,55.40
2017-08-22T13:46:02.709Z,54.80
2017-08-22T13:48:32.589Z,55.10
2017-08-22T13:51:02.262Z,54.80
2017-08-22T13:53:33.016Z,56.20
2017-08-22T13:56:03.222Z,56.00
2017-08-22T13:58:33.622Z,56.60
2017-08-22T14:01:03.600Z,56.70
2017-08-22T14:03:34.008Z,55.70
2017-08-22T14:06:04.557Z,54.50
2017-08-22T14:08:34.368Z,54.60
2017-08-22T14:11:03.979Z,56.00
2017-08-22T14:13:33.891Z,55.20
2017-08-22T14:16:03.791Z,53.70
2017-08-22T14:18:33.459Z,56.00
2017-08-22T14:21:03.065Z,55.70
2017-08-22T14:23:32.639Z,55.40
2017-08-22T14:26:02.190Z,57.00
2017-08-22T14:28:33.014Z,57.40
2017-08-22T14:31:02.613Z,57.40
2017-08-22T14:33:32.349Z,57.20
2017-08-22T14:36:02.203Z,58.00
2017-08-22T14:38:32.106Z,58.20
2017-08-22T14:41:02.317Z,58.30
2017-08-22T14:43:32.681Z,60.90
2017-08-22T14:46:02.434Z,60.90
2017-08-22T14:48:32.852Z,59.90
2017-08-22T14:51:05.523Z,58.80
2017-08-22T14:53:35.518Z,58.70
2017-08-22T14:56:05.278Z,58.80
2017-08-22T14:58:35.674Z,58.90
2017-08-22T15:01:05.819Z,59.20
2017-08-22T15:03:36.256Z,59.30
2017-08-22T15:06:08.283Z,59.30
2017-08-22T15:08:38.728Z,59.40
2017-08-22T15:11:08.308Z,59.60
2017-08-22T15:13:38.231Z,59.10
2017-08-22T15:16:07.793Z,59.70
2017-08-22T15:18:37.503Z,59.30
2017-08-22T15:21:08.108Z,60.40
2017-08-22T15:23:38.195Z,60.40
2017-08-22T15:26:07.739Z,59.50
2017-08-22T15:28:37.351Z,59.00
2017-08-22T15:31:09.279Z,58.70
2017-08-22T15:33:39.161Z,58.70
2017-08-22T15:36:09.520Z,58.90
2017-08-22T15:38:39.143Z,58.60
2017-08-22T15:41:09.870Z,58.80
2017-08-22T15:43:39.827Z,59.60
2017-08-22T15:46:10.347Z,59.80
2017-08-22T15:48:41.262Z,60.00
2017-08-22T15:51:11.104Z,60.00
2017-08-22T15:53:40.724Z,60.40
2017-08-22T15:56:12.515Z,59.70
2017-08-22T15:58:42.391Z,59.70
2017-08-22T16:01:12.362Z,60.00
2017-08-22T16:03:42.268Z,60.50
2017-08-22T16:06:12.233Z,61.00
2017-08-22T16:08:45.174Z,61.90
2017-08-22T16:11:16.111Z,61.80
2017-08-22T16:13:46.615Z,62.10
2017-08-22T16:16:16.424Z,62.70
2017-08-22T16:18:47.533Z,64.70
2017-08-22T16:21:18.363Z,62.20
2017-08-22T16:23:48.180Z,62.20
2017-08-22T16:26:17.779Z,62.80
2017-08-22T16:28:47.360Z,61.30
2017-08-22T16:31:17.062Z,61.90
2017-08-22T16:33:46.964Z,61.70
2017-08-22T16:36:16.526Z,61.40
2017-08-22T16:38:46.087Z,63.00
2017-08-22T16:41:15.645Z,63.50
2017-08-22T16:43:45.259Z,62.70
2017-08-22T16:46:15.164Z,63.90
2017-08-22T16:48:44.809Z,65.20
2017-08-22T16:51:14.492Z,65.90
2017-08-22T16:53:44.448Z,66.80
2017-08-22T16:56:14.012Z,64.80
2017-08-22T16:58:44.466Z,64.90
2017-08-22T17:01:14.456Z,64.90
2017-08-22T17:03:44.991Z,67.30
2017-08-22T17:06:15.759Z,63.20
2017-08-22T17:08:45.315Z,63.20
2017-08-22T17:11:14.863Z,63.50
2017-08-22T17:13:45.256Z,63.80
2017-08-22T17:16:15.594Z,64.70
2017-08-22T17:18:45.447Z,64.60
2017-08-22T17:21:15.802Z,66.60
2017-08-22T17:23:46.495Z,66.50
2017-08-22T17:26:16.359Z,66.70
2017-08-22T17:28:45.886Z,65.90
2017-08-22T17:31:15.859Z,65.90
2017-08-22T17:33:46.132Z,67.00
2017-08-22T17:36:17.552Z,66.40
2017-08-22T17:38:48.169Z,66.50
2017-08-22T17:41:17.735Z,66.50
2017-08-22T17:43:47.876Z,66.00
2017-08-22T17:46:17.807Z,66.20
2017-08-22T17:48:48.207Z,65.40
2017-08-22T17:51:17.892Z,65.90
2017-08-22T17:53:47.468Z,66.10
2017-08-22T17:56:17.119Z,67.10
2017-08-22T17:58:47.207Z,67.30
2017-08-22T18:01:16.823Z,65.60
2017-08-22T18:03:48.610Z,66.80
2017-08-22T18:06:18.629Z,69.60
2017-08-22T18:08:48.223Z,71.90
2017-08-22T18:11:18.191Z,74.30
2017-08-22T18:13:47.841Z,76.40
2017-08-22T18:16:17.470Z,77.50
2017-08-22T18:18:48.066Z,77.60
2017-08-22T18:21:18.567Z,79.00
2017-08-22T18:23:48.252Z,79.00
2017-08-22T18:26:18.571Z,78.10
2017-08-22T18:28:48.210Z,78.00
2017-08-22T18:31:18.063Z,78.50
2017-08-22T18:33:49.100Z,78.00
2017-08-22T18:36:19.455Z,82.10
2017-08-22T18:38:49.359Z,82.00
2017-08-22T18:41:18.960Z,80.60
2017-08-22T18:43:48.576Z,80.20
2017-08-22T18:46:18.868Z,81.20
2017-08-22T18:48:48.472Z,81.20
2017-08-22T18:51:18.324Z,82.60
2017-08-22T18:53:47.997Z,80.70
2017-08-22T18:56:17.596Z,81.20
2017-08-22T18:58:48.521Z,82.00
2017-08-22T19:01:18.317Z,82.00
2017-08-22T19:03:47.917Z,82.10
2017-08-22T19:06:18.210Z,82.20
2017-08-22T19:08:47.758Z,83.20
2017-08-22T19:11:17.588Z,82.30
2017-08-22T19:13:47.411Z,81.80
2017-08-22T19:16:16.996Z,81.20
2017-08-22T19:18:46.883Z,82.00
2017-08-22T19:21:16.509Z,80.40
2017-08-22T19:23:46.136Z,81.40
2017-08-22T19:26:15.764Z,82.30
2017-08-22T19:28:45.327Z,81.20
2017-08-22T19:31:15.245Z,83.20
2017-08-22T19:33:44.836Z,83.60
2017-08-22T19:36:14.398Z,84.40
2017-08-22T19:38:44.300Z,85.70
2017-08-22T19:41:14.661Z,83.10
2017-08-22T19:43:45.010Z,83.10
2017-08-22T19:46:15.135Z,82.70
2017-08-22T19:48:44.977Z,82.60
2017-08-22T19:51:15.943Z,81.80
2017-08-22T19:53:46.261Z,82.20
2017-08-22T19:56:16.137Z,85.20
2017-08-22T19:58:46.453Z,86.00
2017-08-22T20:01:16.711Z,85.50
2017-08-22T20:03:48.536Z,85.40
2017-08-22T20:06:18.647Z,85.50
2017-08-22T20:08:48.887Z,88.30
2017-08-22T20:11:19.531Z,88.40
2017-08-22T20:13:49.443Z,86.30
2017-08-22T20:16:19.711Z,84.80
2017-08-22T20:18:50.650Z,84.90
2017-08-22T20:21:20.639Z,84.90
2017-08-22T20:23:51.759Z,86.20
2017-08-22T20:26:21.639Z,88.00
2017-08-22T20:28:51.670Z,88.30
2017-08-22T20:31:21.571Z,87.60
2017-08-22T20:33:51.632Z,87.70
2017-08-22T20:36:23.251Z,87.40
2017-08-22T20:38:53.059Z,87.40
2017-08-22T20:41:23.592Z,87.00
2017-08-22T20:43:54.526Z,87.60
2017-08-22T20:46:24.196Z,87.50
2017-08-22T20:48:53.735Z,89.40
2017-08-22T20:51:24.383Z,89.60
2017-08-22T20:53:53.967Z,89.50
2017-08-22T20:56:24.307Z,89.50
2017-08-22T20:58:53.975Z,89.40
2017-08-22T21:01:23.692Z,87.90
2017-08-22T21:03:53.571Z,89.30
2017-08-22T21:06:23.187Z,89.50
2017-08-22T21:08:52.944Z,89.60
2017-08-22T21:11:22.956Z,90.00
2017-08-22T21:13:52.928Z,90.00
2017-08-22T21:16:22.907Z,89.60
2017-08-22T21:18:53.797Z,89.90
2017-08-22T21:21:23.647Z,89.90
2017-08-22T21:23:54.120Z,90.40
2017-08-22T21:26:23.816Z,90.40
2017-08-22T21:28:54.112Z,90.20
2017-08-22T21:31:23.697Z,91.00
2017-08-22T21:33:53.223Z,91.10
2017-08-22T21:36:23.818Z,90.70
2017-08-22T21:38:53.384Z,90.60
2017-08-22T21:41:22.920Z,90.90
2017-08-22T21:43:52.832Z,90.40
2017-08-22T21:46:22.394Z,90.20
2017-08-22T21:48:52.723Z,90.10
2017-08-22T21:51:23.008Z,90.10
2017-08-22T21:53:52.578Z,90.10
2017-08-22T21:56:22.408Z,90.10
2017-08-22T21:58:51.964Z,90.30
2017-08-22T22:01:22.495Z,90.90
2017-08-22T22:03:52.295Z,90.90
2017-08-22T22:06:22.937Z,91.50
2017-08-22T22:08:54.231Z,91.30
2017-08-22T22:11:24.039Z,91.30
2017-08-22T22:13:53.812Z,91.10
2017-08-22T22:16:24.656Z,90.80
2017-08-22T22:18:55.537Z,90.30
2017-08-22T22:21:25.120Z,90.30
2017-08-22T22:23:54.662Z,90.50
2017-08-22T22:26:24.200Z,90.30
2017-08-22T22:28:54.761Z,90.00
2017-08-22T22:31:24.288Z,90.00
2017-08-22T22:33:53.792Z,90.10
2017-08-22T22:36:23.598Z,89.80
2017-08-22T22:38:53.140Z,89.50
2017-08-22T22:41:22.671Z,89.60
2017-08-22T22:43:52.198Z,89.60
2017-08-22T22:46:22.193Z,90.30
2017-08-22T22:48:52.275Z,90.00
2017-08-22T22:51:21.823Z,90.10
2017-08-22T22:53:52.115Z,90.20
2017-08-22T22:56:21.917Z,90.20
2017-08-22T22:58:51.435Z,90.30
2017-08-22T23:01:20.989Z,90.40
2017-08-22T23:03:50.776Z,90.20
2017-08-22T23:06:20.285Z,90.10
2017-08-22T23:08:50.352Z,89.60
2017-08-22T23:11:20.390Z,89.30
2017-08-22T23:13:50.191Z,89.40
2017-08-22T23:16:20.043Z,89.00
2017-08-22T23:18:50.041Z,89.00
2017-08-22T23:21:21.325Z,89.30
2017-08-22T23:23:52.106Z,89.20
2017-08-22T23:26:22.230Z,89.70
2017-08-22T23:28:52.501Z,89.90
2017-08-22T23:31:22.544Z,90.10
2017-08-22T23:33:52.311Z,90.10
2017-08-22T23:36:22.295Z,89.90
2017-08-22T23:38:52.256Z,90.00
2017-08-22T23:41:22.771Z,90.00
2017-08-22T23:43:52.315Z,90.10
2017-08-22T23:46:23.414Z,90.20
2017-08-22T23:48:53.167Z,90.30
2017-08-22T23:51:23.025Z,90.30
2017-08-22T23:53:52.858Z,90.50
2017-08-22T23:56:22.391Z,90.40
2017-08-22T23:58:52.419Z,90.40
